Time;durP1;ratioP1;P1;durP2;ratioP2;P2;SDS_P1;SDS_P2;PMS_P1;PMS_P2;Temp;Humidity;BMP_temperature;BMP_pressure;BME280_temperature;BME280_humidity;BME280_pressure;Samples;Min_cycle;Max_cycle;Signal;HPM_P1;HPM_P2
2023/10/25 00:00:02;;;;;;;8.70;5.13;;;9.70;95.90;;;;;;765612;187;26481;-89
2023/10/25 00:02:28;;;;;;;7.73;5.40;;;9.70;95.80;;;;;;766173;182;26994;-89
2023/10/25 00:04:56;;;;;;;10.83;5.50;;;9.80;95.80;;;;;;764731;187;26494;-89
2023/10/25 00:07:22;;;;;;;9.10;6.10;;;9.80;95.70;;;;;;765185;187;26467;-89
2023/10/25 00:09:49;;;;;;;9.53;5.53;;;9.80;95.80;;;;;;766225;187;26514;-89
2023/10/25 00:12:15;;;;;;;7.13;4.80;;;9.80;95.90;;;;;;762294;180;26576;-89
2023/10/25 00:14:42;;;;;;;9.67;5.17;;;9.90;95.70;;;;;;767971;184;26574;-89
2023/10/25 00:17:09;;;;;;;9.90;6.00;;;9.80;95.60;;;;;;762363;184;26993;-90
2023/10/25 00:19:35;;;;;;;10.33;5.20;;;9.80;95.60;;;;;;790808;179;26491;-91
2023/10/25 00:22:02;;;;;;;12.63;7.00;;;9.80;95.60;;;;;;762217;188;26509;-90
2023/10/25 00:24:28;;;;;;;10.67;5.63;;;9.80;95.80;;;;;;765316;187;26471;-90
2023/10/25 00:26:55;;;;;;;9.37;5.60;;;9.80;95.50;;;;;;764696;183;26465;-89
2023/10/25 00:29:22;;;;;;;7.90;4.87;;;9.80;95.60;;;;;;774258;185;27026;-90
2023/10/25 00:31:48;;;;;;;7.43;4.80;;;9.80;95.60;;;;;;764282;185;26535;-91
2023/10/25 00:34:15;;;;;;;8.13;4.80;;;9.70;95.50;;;;;;776456;182;27064;-91
2023/10/25 00:36:42;;;;;;;11.73;5.13;;;9.80;95.60;;;;;;793424;178;26412;-89
2023/10/25 00:39:08;;;;;;;8.70;5.07;;;9.70;95.50;;;;;;768877;186;26600;-90
2023/10/25 00:41:35;;;;;;;8.67;4.50;;;9.70;95.60;;;;;;776953;184;26466;-91
2023/10/25 00:44:02;;;;;;;9.07;4.73;;;9.70;95.50;;;;;;773781;182;27029;-90
2023/10/25 00:46:28;;;;;;;6.77;4.30;;;9.70;95.50;;;;;;793138;181;26447;-90
2023/10/25 00:48:55;;;;;;;10.50;5.70;;;9.70;95.50;;;;;;761027;188;26499;-90
2023/10/25 00:51:22;;;;;;;8.47;5.30;;;9.70;95.60;;;;;;792169;179;26457;-90
2023/10/25 00:53:51;;;;;;;8.17;5.00;;;9.70;95.80;;;;;;796203;179;26437;-90
2023/10/25 00:56:18;;;;;;;7.07;5.37;;;9.70;95.70;;;;;;767506;184;26475;-91
2023/10/25 00:58:44;;;;;;;9.97;5.53;;;9.70;95.60;;;;;;775264;185;26598;-91
2023/10/25 01:01:11;;;;;;;9.37;5.80;;;9.70;95.60;;;;;;762094;185;26471;-90
2023/10/25 01:03:37;;;;;;;8.20;5.67;;;9.80;95.70;;;;;;778548;184;26448;-89
2023/10/25 01:06:04;;;;;;;9.50;6.30;;;9.80;95.50;;;;;;778902;181;26486;-90
2023/10/25 01:08:31;;;;;;;9.73;5.63;;;9.90;95.60;;;;;;764147;183;26510;-90
2023/10/25 01:10:57;;;;;;;8.97;5.77;;;9.80;95.40;;;;;;764249;187;26477;-91
2023/10/25 01:13:24;;;;;;;12.07;5.67;;;9.80;95.50;;;;;;760865;188;26472;-89
2023/10/25 01:15:50;;;;;;;8.60;6.00;;;9.80;95.60;;;;;;764617;187;28071;-92
2023/10/25 01:18:17;;;;;;;8.20;4.97;;;9.80;95.50;;;;;;760090;187;26562;-91
2023/10/25 01:20:44;;;;;;;8.40;5.33;;;9.70;95.30;;;;;;756317;186;27089;-90
2023/10/25 01:23:10;;;;;;;7.93;5.73;;;9.80;95.50;;;;;;761582;185;27029;-91
2023/10/25 01:25:38;;;;;;;10.27;7.10;;;9.80;95.50;;;;;;777331;184;26456;-90
2023/10/25 01:28:04;;;;;;;10.20;6.53;;;9.90;95.50;;;;;;772270;183;26458;-91
2023/10/25 01:30:30;;;;;;;13.67;7.33;;;9.80;95.40;;;;;;767028;187;26706;-90
2023/10/25 01:32:58;;;;;;;8.60;6.67;;;9.80;95.30;;;;;;765760;187;26473;-89
2023/10/25 01:35:24;;;;;;;9.43;7.20;;;9.70;95.30;;;;;;794031;178;26435;-92
2023/10/25 01:37:51;;;;;;;10.33;7.53;;;9.80;95.50;;;;;;766181;187;27022;-90
2023/10/25 01:40:17;;;;;;;9.47;7.73;;;9.80;95.50;;;;;;767385;183;26527;-89
2023/10/25 01:42:44;;;;;;;10.33;7.40;;;9.80;95.60;;;;;;767034;186;26478;-89
2023/10/25 01:45:11;;;;;;;9.77;6.57;;;9.80;95.40;;;;;;778636;182;26454;-90
2023/10/25 01:47:37;;;;;;;11.83;7.30;;;9.70;95.30;;;;;;776208;184;26468;-90
2023/10/25 01:50:04;;;;;;;10.03;6.63;;;9.70;95.60;;;;;;776509;182;26470;-92
2023/10/25 01:52:30;;;;;;;10.50;6.40;;;9.70;95.40;;;;;;767871;182;26453;-92
2023/10/25 01:54:57;;;;;;;8.23;6.77;;;9.60;95.20;;;;;;796408;176;26428;-91
2023/10/25 01:57:24;;;;;;;10.37;7.60;;;9.60;95.30;;;;;;768606;187;26543;-89
2023/10/25 01:59:50;;;;;;;9.33;6.67;;;9.70;95.70;;;;;;766880;183;26484;-90
2023/10/25 02:02:17;;;;;;;14.73;7.77;;;9.60;95.60;;;;;;767308;183;26527;-90
2023/10/25 02:04:44;;;;;;;10.23;6.73;;;9.60;95.60;;;;;;793337;175;26430;-90
2023/10/25 02:07:10;;;;;;;10.17;7.03;;;9.60;95.30;;;;;;776323;183;26520;-90
2023/10/25 02:09:37;;;;;;;10.33;7.83;;;9.60;95.30;;;;;;795339;178;27046;-90
2023/10/25 02:12:04;;;;;;;13.93;7.97;;;9.50;95.40;;;;;;791097;180;26564;-90
2023/10/25 02:14:30;;;;;;;12.23;8.43;;;9.40;95.40;;;;;;794299;181;26476;-91
2023/10/25 02:16:57;;;;;;;11.30;7.20;;;9.50;95.60;;;;;;766881;184;26469;-92
2023/10/25 02:19:23;;;;;;;11.93;6.90;;;9.40;95.40;;;;;;775999;184;26485;-89
2023/10/25 02:21:50;;;;;;;11.80;6.97;;;9.40;95.50;;;;;;793426;178;26451;-91
2023/10/25 02:24:17;;;;;;;8.77;7.43;;;9.40;95.50;;;;;;771883;180;27022;-89
2023/10/25 02:26:43;;;;;;;11.17;8.27;;;9.30;95.50;;;;;;770150;184;26497;-91
2023/10/25 02:29:10;;;;;;;13.43;7.60;;;9.40;95.90;;;;;;772857;184;26507;-89
2023/10/25 02:31:36;;;;;;;13.00;8.13;;;9.30;95.70;;;;;;765743;180;26469;-89
2023/10/25 02:34:03;;;;;;;10.33;7.47;;;9.30;95.80;;;;;;775069;184;26471;-89
2023/10/25 02:36:30;;;;;;;11.00;7.67;;;9.30;95.70;;;;;;781131;184;26518;-90
2023/10/25 02:38:56;;;;;;;11.20;7.20;;;9.30;95.80;;;;;;777224;183;27063;-89
2023/10/25 02:41:23;;;;;;;11.87;7.37;;;9.30;95.70;;;;;;761892;185;26482;-90
2023/10/25 02:43:53;;;;;;;9.63;7.07;;;9.30;95.80;;;;;;762024;189;26474;-90
2023/10/25 02:46:18;;;;;;;8.83;6.83;;;9.30;95.70;;;;;;760561;184;26470;-90
2023/10/25 02:48:45;;;;;;;8.10;6.67;;;9.20;95.60;;;;;;772580;184;26518;-91
2023/10/25 02:51:11;;;;;;;10.63;7.17;;;9.20;95.60;;;;;;767207;184;26478;-90
2023/10/25 02:53:38;;;;;;;13.43;7.77;;;9.20;95.70;;;;;;766690;183;26485;-90
2023/10/25 02:56:05;;;;;;;8.83;6.83;;;9.20;95.70;;;;;;776648;183;27036;-90
2023/10/25 02:59:03;;;;;;;;;;;;;;;;;;;;;
2023/10/25 03:09:53;;;;;;;10.77;7.60;;;9.20;96.00;;;;;;794883;179;26427;-87
2023/10/25 03:12:37;;;;;;;;;;;;;;;;;;;;;
2023/10/25 03:15:23;;;;;;;12.77;7.50;;;9.20;95.90;;;;;;799910;179;26430;-87
2023/10/25 03:26:49;;;;;;;9.83;8.33;;;9.00;95.70;;;;;;768772;183;27138;-85
2023/10/25 03:29:41;;;;;;;10.33;7.60;;;9.00;95.60;;;;;;776529;185;26493;-86
2023/10/25 03:32:20;;;;;;;11.67;8.10;;;9.00;95.70;;;;;;770078;182;26482;-83
2023/10/25 03:38:00;;;;;;;13.73;8.50;;;8.90;95.80;;;;;;806720;177;26452;-85
2023/10/25 03:51:41;;;;;;;9.87;7.77;;;8.90;96.00;;;;;;713020;177;26525;-87
2023/10/25 03:54:38;;;;;;;14.23;8.83;;;8.90;95.90;;;;;;762939;187;26526;-86
2023/10/25 04:03:09;;;;;;;13.57;8.23;;;9.00;96.00;;;;;;720720;182;26503;-88
2023/10/25 04:05:39;;;;;;;10.57;8.20;;;8.90;95.80;;;;;;774678;183;26526;-88
2023/10/25 04:08:16;;;;;;;12.77;9.13;;;8.90;95.90;;;;;;778714;183;26555;-89
2023/10/25 04:11:03;;;;;;;15.33;10.10;;;8.90;95.80;;;;;;788483;180;26465;-90
2023/10/25 04:13:43;;;;;;;12.43;8.80;;;8.80;95.80;;;;;;787846;181;27058;-88
2023/10/25 04:16:30;;;;;;;10.30;8.07;;;8.80;96.00;;;;;;787296;182;26480;-86
2023/10/25 04:25:07;;;;;;;;;;;;;;;;;;;;;
2023/10/25 04:33:39;;;;;;;13.37;9.07;;;9.00;96.30;;;;;;744845;190;26568;-86
2023/10/25 04:41:35;;;;;;;14.43;9.63;;;9.00;95.90;;;;;;721720;178;26521;-87
2023/10/25 07:19:27;;;;;;;4.33;3.60;;;10.20;93.10;;;;;;784564;179;26438;-89
2023/10/25 07:21:58;;;;;;;5.33;3.57;;;10.30;92.70;;;;;;783810;183;26425;-89
2023/10/25 07:24:30;;;;;;;6.97;3.50;;;10.40;92.80;;;;;;792210;176;26457;-89
2023/10/25 07:27:01;;;;;;;7.93;3.13;;;10.40;92.20;;;;;;797388;180;26559;-89
2023/10/25 07:34:59;;;;;;;5.93;3.20;;;10.60;92.90;;;;;;797793;178;27005;-87
2023/10/25 07:37:43;;;;;;;7.73;3.20;;;10.70;92.40;;;;;;795639;178;28085;-88
2023/10/25 07:40:36;;;;;;;;;;;;;;;;;;;;;
2023/10/25 07:43:20;;;;;;;8.37;3.03;;;10.90;92.20;;;;;;805941;175;26435;-88
2023/10/25 07:46:12;;;;;;;8.13;2.97;;;10.90;92.00;;;;;;810762;176;26432;-91
2023/10/25 07:54:32;;;;;;;;;;;;;;;;;;;;;
2023/10/25 07:57:08;;;;;;;4.83;2.97;;;11.10;91.90;;;;;;809875;174;26490;-87
2023/10/25 08:02:45;;;;;;;7.40;2.70;;;11.20;91.20;;;;;;743527;175;26965;-88
2023/10/25 08:05:17;;;;;;;6.23;2.70;;;11.40;91.70;;;;;;805206;176;26941;-91
2023/10/25 08:10:47;;;;;;;5.67;2.33;;;11.40;90.70;;;;;;717577;180;26579;-88
2023/10/25 08:13:29;;;;;;;5.33;2.43;;;11.50;90.70;;;;;;768310;187;27094;-88
2023/10/25 08:16:20;;;;;;;4.43;2.20;;;11.60;91.20;;;;;;768166;183;26550;-88
2023/10/25 08:19:19;;;;;;;6.63;3.30;;;11.60;90.30;;;;;;770848;185;26503;-88
2023/10/25 08:22:08;;;;;;;4.43;2.37;;;11.70;90.10;;;;;;774046;183;26484;-88
2023/10/25 08:24:44;;;;;;;4.23;2.70;;;11.70;90.30;;;;;;769075;183;26496;-88
2023/10/25 08:27:21;;;;;;;5.50;2.30;;;11.70;90.60;;;;;;769636;183;26475;-89
2023/10/25 08:30:02;;;;;;;5.23;2.57;;;11.70;89.60;;;;;;769664;187;26598;-88
2023/10/25 08:38:33;;;;;;;6.00;2.40;;;11.70;90.20;;;;;;764582;184;27039;-88
2023/10/25 08:41:20;;;;;;;4.47;2.30;;;11.80;89.80;;;;;;767354;179;27034;-87
2023/10/25 08:44:21;;;;;;;5.43;2.50;;;11.80;90.10;;;;;;750542;190;26501;-90
2023/10/25 08:52:37;;;;;;;6.93;2.50;;;11.70;90.20;;;;;;737814;178;26591;-90
2023/10/25 08:55:10;;;;;;;4.17;2.20;;;11.70;90.10;;;;;;752162;188;27176;-89
2023/10/25 08:58:06;;;;;;;4.17;2.60;;;11.80;90.30;;;;;;747698;191;26543;-89
2023/10/25 09:14:41;;;;;;;5.37;2.80;;;11.20;92.10;;;;;;746030;176;26462;-89
2023/10/25 09:17:09;;;;;;;4.83;3.07;;;11.30;93.00;;;;;;788388;181;26520;-90
2023/10/25 09:19:42;;;;;;;6.73;2.63;;;11.40;92.60;;;;;;770965;185;26531;-89
2023/10/25 09:22:26;;;;;;;4.43;2.60;;;11.40;92.70;;;;;;805428;173;26461;-89
2023/10/25 09:28:01;;;;;;;4.10;2.70;;;11.50;92.20;;;;;;771607;183;26466;-90
2023/10/25 09:30:28;;;;;;;4.40;2.80;;;11.50;92.30;;;;;;801188;176;26437;-89
2023/10/25 09:32:54;;;;;;;3.63;2.40;;;11.50;92.00;;;;;;808848;177;26458;-89
2023/10/25 09:35:21;;;;;;;5.47;2.90;;;11.60;91.80;;;;;;808860;178;26466;-89
2023/10/25 09:37:49;;;;;;;5.63;2.97;;;11.60;91.60;;;;;;808804;174;27009;-93
2023/10/25 09:40:16;;;;;;;4.03;2.73;;;11.70;91.70;;;;;;808159;177;27043;-91
2023/10/25 09:42:48;;;;;;;4.37;2.50;;;11.70;91.60;;;;;;808725;178;27048;-91
2023/10/25 09:45:13;;;;;;;4.77;2.90;;;11.70;91.70;;;;;;808384;177;26441;-90
2023/10/25 09:47:40;;;;;;;7.30;2.80;;;11.80;91.50;;;;;;808419;177;26520;-88
2023/10/25 09:50:08;;;;;;;6.00;2.90;;;11.80;91.40;;;;;;808106;177;26435;-89
2023/10/25 09:52:34;;;;;;;5.87;2.47;;;11.90;91.60;;;;;;808170;178;26428;-90
2023/10/25 09:55:03;;;;;;;4.37;2.80;;;11.90;90.90;;;;;;808872;174;26449;-89
2023/10/25 09:57:30;;;;;;;5.80;3.00;;;11.90;91.10;;;;;;808904;174;26436;-89
2023/10/25 09:59:57;;;;;;;4.13;3.17;;;11.90;91.00;;;;;;808591;177;26457;-93
2023/10/25 10:02:32;;;;;;;5.70;2.57;;;12.00;91.40;;;;;;808425;178;26517;-91
2023/10/25 10:04:58;;;;;;;5.50;2.80;;;12.00;90.70;;;;;;811048;176;26479;-90
2023/10/25 10:07:32;;;;;;;5.27;3.00;;;11.90;90.70;;;;;;810089;174;26432;-90
2023/10/25 10:10:04;;;;;;;5.90;3.80;;;11.90;90.90;;;;;;809605;177;26431;-90
2023/10/25 10:12:31;;;;;;;4.03;3.50;;;12.00;91.60;;;;;;809638;177;26461;-90
2023/10/25 10:14:58;;;;;;;11.27;3.73;;;11.90;92.00;;;;;;809687;177;27004;-91
2023/10/25 10:17:25;;;;;;;5.27;4.17;;;11.90;92.00;;;;;;809372;174;27004;-91
2023/10/25 10:19:52;;;;;;;7.57;4.17;;;11.80;92.70;;;;;;809668;177;26505;-92
2023/10/25 12:52:11;;;;;;;;;;;;;;;;;;;;;
2023/10/25 13:00:21;;;;;;;12.10;7.10;;;11.50;97.40;;;;;;772199;186;26428;-85
2023/10/25 13:06:04;;;;;;;8.43;7.10;;;11.50;97.60;;;;;;773012;186;26508;-87
2023/10/25 13:11:38;;;;;;;12.53;8.03;;;11.50;97.60;;;;;;773703;186;26456;-88
2023/10/25 13:14:16;;;;;;;9.87;7.60;;;11.50;97.70;;;;;;773627;182;27303;-88
2023/10/25 13:19:31;;;;;;;13.33;8.37;;;11.50;97.60;;;;;;773296;186;26448;-89
2023/10/25 13:49:52;;;;;;;11.70;8.03;;;11.40;97.90;;;;;;780397;184;26446;-88
2023/10/25 13:52:23;;;;;;;8.37;6.67;;;11.40;98.00;;;;;;778829;183;26386;-87
2023/10/25 13:54:56;;;;;;;7.83;6.97;;;11.40;98.00;;;;;;778299;184;26583;-88
2023/10/25 13:57:26;;;;;;;13.07;8.77;;;11.40;97.90;;;;;;777561;184;26483;-88
2023/10/25 14:11:04;;;;;;;7.87;6.30;;;11.50;98.80;;;;;;727295;175;26509;-87
2023/10/25 14:13:40;;;;;;;9.23;7.60;;;11.50;99.00;;;;;;778066;185;27043;-87
2023/10/25 14:18:57;;;;;;;6.60;5.63;;;11.60;99.00;;;;;;778870;184;27086;-87
2023/10/25 14:21:34;;;;;;;6.17;5.43;;;11.60;99.00;;;;;;766993;184;26600;-87
2023/10/25 14:24:11;;;;;;;7.53;4.77;;;11.60;98.80;;;;;;763925;187;26550;-88
2023/10/25 14:26:41;;;;;;;5.63;5.13;;;11.60;98.70;;;;;;763744;187;27060;-87
2023/10/25 15:05:02;;;;;;;6.73;5.17;;;11.90;98.80;;;;;;777978;183;27022;-89
2023/10/25 15:10:22;;;;;;;7.63;5.83;;;11.90;98.80;;;;;;782006;180;26473;-90
2023/10/25 15:13:09;;;;;;;8.00;5.97;;;12.00;99.00;;;;;;782224;183;26479;-89
2023/10/25 15:26:54;;;;;;;5.83;5.33;;;12.00;99.20;;;;;;727776;176;26507;-89
2023/10/25 15:32:01;;;;;;;25.13;16.63;;;12.10;99.20;;;;;;767696;179;26530;-87
2023/10/25 15:34:40;;;;;;;8.03;6.90;;;12.10;99.20;;;;;;772674;186;26497;-88
2023/10/25 15:37:14;;;;;;;10.80;7.30;;;12.10;99.30;;;;;;802965;177;26457;-86
2023/10/25 15:39:41;;;;;;;5.13;4.63;;;12.20;99.40;;;;;;803101;178;26430;-87
2023/10/25 15:42:20;;;;;;;7.27;5.70;;;12.10;99.00;;;;;;803021;177;26451;-87
2023/10/25 15:44:56;;;;;;;8.40;5.63;;;12.20;99.20;;;;;;803222;179;26414;-84
2023/10/25 15:47:40;;;;;;;7.27;6.10;;;12.20;99.20;;;;;;803510;177;26969;-87
2023/10/25 15:50:08;;;;;;;5.67;5.07;;;12.20;99.20;;;;;;803249;176;26447;-86
2023/10/25 15:52:43;;;;;;;10.80;7.63;;;12.20;99.10;;;;;;803117;177;26490;-87
2023/10/25 15:55:16;;;;;;;14.87;10.47;;;12.10;98.90;;;;;;803118;178;26458;-87
2023/10/25 15:57:46;;;;;;;12.20;8.03;;;12.10;99.00;;;;;;773315;185;26485;-88
2023/10/25 16:00:34;;;;;;;8.50;6.00;;;12.00;98.80;;;;;;803750;175;26443;-88
2023/10/25 16:03:01;;;;;;;11.43;9.73;;;12.00;99.00;;;;;;794493;178;26497;-87
2023/10/25 16:05:33;;;;;;;7.30;6.60;;;12.10;99.30;;;;;;804656;174;26996;-87
2023/10/25 16:08:01;;;;;;;7.80;7.00;;;12.20;99.40;;;;;;804565;177;26418;-87
2023/10/25 16:10:39;;;;;;;10.23;6.77;;;12.20;99.20;;;;;;804641;175;26490;-84
2023/10/25 16:13:05;;;;;;;10.13;6.93;;;12.20;99.20;;;;;;804060;178;26431;-88
2023/10/25 16:15:46;;;;;;;8.07;7.27;;;12.10;99.10;;;;;;803962;178;26976;-88
2023/10/25 16:18:18;;;;;;;7.23;6.50;;;12.20;99.50;;;;;;803876;176;26534;-87
2023/10/25 16:21:03;;;;;;;8.27;5.37;;;12.20;99.10;;;;;;800402;177;27083;-87
2023/10/25 16:23:41;;;;;;;6.77;6.03;;;12.20;99.00;;;;;;801215;176;26433;-88
2023/10/25 16:26:27;;;;;;;7.57;6.50;;;12.20;99.10;;;;;;802613;179;26422;-88
2023/10/25 16:29:07;;;;;;;8.27;5.90;;;12.20;99.20;;;;;;802771;179;26430;-89
2023/10/25 16:31:45;;;;;;;8.80;7.33;;;12.20;99.20;;;;;;804474;177;27007;-91
2023/10/25 16:39:53;;;;;;;8.77;7.80;;;12.20;99.40;;;;;;803146;177;26447;-89
2023/10/25 16:42:31;;;;;;;8.00;6.83;;;12.20;99.40;;;;;;801618;176;26364;-87
2023/10/25 16:45:10;;;;;;;9.93;8.33;;;12.20;99.50;;;;;;787605;178;26444;-90
2023/10/25 16:48:02;;;;;;;6.70;6.10;;;12.20;99.50;;;;;;801586;177;28034;-89
2023/10/25 16:50:40;;;;;;;7.90;6.80;;;12.20;99.50;;;;;;799284;174;27035;-89
2023/10/25 16:53:14;;;;;;;10.33;9.23;;;12.20;99.50;;;;;;772309;184;27222;-85
2023/10/25 16:55:47;;;;;;;10.50;7.43;;;12.20;99.60;;;;;;753644;187;26473;-85
2023/10/25 16:58:16;;;;;;;7.50;6.57;;;12.30;99.70;;;;;;763088;184;26523;-85
2023/10/25 17:00:59;;;;;;;7.83;6.40;;;12.20;99.60;;;;;;759702;185;26502;-86
2023/10/25 17:03:27;;;;;;;9.77;7.97;;;12.20;99.60;;;;;;759239;187;26536;-86
2023/10/25 17:06:00;;;;;;;10.40;7.37;;;12.30;99.70;;;;;;759574;184;27106;-88
2023/10/25 17:08:26;;;;;;;10.67;7.70;;;12.30;99.70;;;;;;777494;184;26485;-89
2023/10/25 17:11:04;;;;;;;8.67;7.60;;;12.30;99.70;;;;;;772392;184;26472;-88
2023/10/25 17:13:47;;;;;;;8.97;7.97;;;12.30;99.80;;;;;;781971;181;26473;-88
2023/10/25 17:16:20;;;;;;;6.80;6.10;;;12.30;99.80;;;;;;768510;186;26535;-88
2023/10/25 17:18:46;;;;;;;7.33;6.30;;;12.30;99.80;;;;;;776638;183;26518;-87
2023/10/25 17:21:13;;;;;;;9.40;8.40;;;12.30;99.80;;;;;;774663;184;26487;-88
2023/10/25 17:23:48;;;;;;;7.77;6.57;;;12.30;99.80;;;;;;772578;183;26506;-84
2023/10/25 17:26:28;;;;;;;11.83;7.50;;;12.40;99.80;;;;;;776170;183;26546;-88
2023/10/25 17:29:03;;;;;;;10.33;8.63;;;12.40;99.90;;;;;;773928;183;26465;-88
2023/10/25 17:31:40;;;;;;;10.70;7.60;;;12.40;99.90;;;;;;779322;177;26777;-89
2023/10/25 17:39:37;;;;;;;7.43;6.60;;;12.50;99.90;;;;;;746004;190;26546;-87
2023/10/25 17:42:12;;;;;;;47.17;26.83;;;12.40;99.90;;;;;;729963;197;26552;-87
2023/10/25 17:44:47;;;;;;;72.37;40.43;;;12.50;99.90;;;;;;745509;189;26589;-89
2023/10/25 17:47:15;;;;;;;88.17;48.47;;;12.50;99.90;;;;;;743633;191;26576;-87
2023/10/25 17:50:02;;;;;;;84.37;48.90;;;12.50;99.80;;;;;;737461;190;26528;-87
2023/10/25 17:52:40;;;;;;;82.53;48.13;;;12.50;99.70;;;;;;736874;191;26517;-85
2023/10/25 17:55:16;;;;;;;194.63;106.30;;;12.50;99.70;;;;;;730984;194;26540;-90
2023/10/25 17:57:53;;;;;;;143.20;74.03;;;12.50;99.50;;;;;;747091;189;26514;-87
2023/10/25 18:00:24;;;;;;;205.50;97.80;;;12.50;99.20;;;;;;743187;187;26508;-87
2023/10/25 18:02:53;;;;;;;219.67;115.83;;;12.50;99.20;;;;;;742926;188;26570;-86
2023/10/25 18:05:38;;;;;;;133.90;73.57;;;12.50;99.00;;;;;;743384;190;26569;-86
2023/10/25 18:08:06;;;;;;;155.07;91.33;;;12.50;99.00;;;;;;750424;188;26520;-86
2023/10/25 18:10:54;;;;;;;106.00;64.70;;;12.50;98.90;;;;;;758231;180;26554;-85
2023/10/25 18:13:46;;;;;;;52.27;36.30;;;12.50;98.80;;;;;;791907;180;26450;-88
2023/10/25 18:16:13;;;;;;;77.90;42.63;;;12.50;98.80;;;;;;775713;183;26516;-85
2023/10/25 18:18:47;;;;;;;105.93;55.77;;;12.50;98.70;;;;;;796750;179;26441;-87
2023/10/25 18:21:39;;;;;;;141.30;82.17;;;12.40;98.50;;;;;;788226;180;26432;-88
2023/10/25 18:24:12;;;;;;;234.00;125.07;;;12.40;98.40;;;;;;785901;181;26439;-83
2023/10/25 18:26:50;;;;;;;82.47;43.80;;;12.40;98.60;;;;;;794567;179;26443;-88
2023/10/25 18:29:22;;;;;;;47.27;31.27;;;12.40;98.50;;;;;;794064;181;26445;-87
2023/10/25 18:31:55;;;;;;;46.50;30.33;;;12.40;98.30;;;;;;768911;182;27054;-84
2023/10/25 18:37:15;;;;;;;107.37;60.83;;;12.40;98.40;;;;;;769685;184;26957;-85
2023/10/25 18:42:21;;;;;;;46.73;30.77;;;12.40;98.30;;;;;;791079;182;26362;-87
2023/10/25 18:44:57;;;;;;;39.07;24.07;;;12.40;97.90;;;;;;778655;183;26468;-87
2023/10/25 18:47:21;;;;;;;83.43;43.20;;;12.30;97.80;;;;;;781074;181;26374;-87
2023/10/25 18:52:40;;;;;;;60.53;36.13;;;12.30;97.40;;;;;;714302;180;26539;-87
2023/10/25 18:55:15;;;;;;;33.93;21.40;;;12.20;97.50;;;;;;774092;184;26513;-86
2023/10/25 19:00:33;;;;;;;45.70;26.00;;;12.10;97.30;;;;;;759445;187;26524;-86
2023/10/25 19:08:50;;;;;;;85.33;44.87;;;12.00;97.10;;;;;;763763;187;26480;-87
2023/10/25 19:11:42;;;;;;;94.57;48.80;;;12.00;97.10;;;;;;750199;188;26588;-88
2023/10/25 19:14:23;;;;;;;94.97;48.40;;;12.00;97.50;;;;;;750244;190;26541;-88
2023/10/25 19:17:00;;;;;;;31.10;20.57;;;11.90;97.20;;;;;;753533;187;26500;-85
2023/10/25 19:19:29;;;;;;;15.17;10.70;;;11.90;97.00;;;;;;753000;190;26480;-85
2023/10/25 19:21:58;;;;;;;23.77;15.57;;;11.90;97.10;;;;;;753146;187;26560;-88
2023/10/25 19:24:33;;;;;;;115.07;69.93;;;11.90;97.10;;;;;;753254;191;26524;-87
2023/10/25 19:27:10;;;;;;;101.60;52.33;;;11.90;97.10;;;;;;763521;187;26528;-87
2023/10/25 19:29:43;;;;;;;95.70;52.40;;;11.90;97.00;;;;;;737478;191;27033;-87
2023/10/25 19:32:12;;;;;;;32.10;21.47;;;11.90;97.10;;;;;;765235;187;26495;-86
2023/10/25 19:34:49;;;;;;;18.87;14.37;;;11.90;97.00;;;;;;764888;187;26500;-86
2023/10/25 22:50:57;;;;;;;11.57;8.80;;;11.20;98.40;;;;;;714177;182;26548;-88
2023/10/25 22:53:33;;;;;;;11.87;8.57;;;11.20;98.50;;;;;;760520;187;27079;-92
2023/10/25 22:56:11;;;;;;;17.17;12.20;;;11.20;98.40;;;;;;759205;189;26491;-91
2023/10/25 22:58:41;;;;;;;20.53;14.13;;;11.20;98.50;;;;;;759365;189;26543;-91
2023/10/25 23:01:19;;;;;;;19.60;13.37;;;11.20;98.60;;;;;;759832;185;26580;-89
2023/10/25 23:03:51;;;;;;;12.20;9.03;;;11.20;98.50;;;;;;749980;187;26476;-88
2023/10/25 23:06:23;;;;;;;11.37;9.40;;;11.20;98.60;;;;;;747189;189;26485;-90
2023/10/25 23:09:02;;;;;;;11.70;8.23;;;11.20;98.60;;;;;;765493;185;26517;-91
2023/10/25 23:11:35;;;;;;;16.57;12.13;;;11.20;98.60;;;;;;765972;183;26476;-91
2023/10/25 23:14:21;;;;;;;11.10;7.70;;;11.20;98.50;;;;;;764840;181;26449;-86
2023/10/25 23:16:59;;;;;;;9.57;8.07;;;11.20;98.60;;;;;;760808;184;26464;-89
2023/10/25 23:19:31;;;;;;;15.60;10.67;;;11.20;98.50;;;;;;751094;189;26494;-84
2023/10/25 23:22:21;;;;;;;16.10;10.23;;;11.20;98.60;;;;;;756717;188;26503;-89
2023/10/25 23:24:51;;;;;;;10.43;8.07;;;11.30;98.80;;;;;;747747;187;26488;-89
2023/10/25 23:27:27;;;;;;;6.77;6.00;;;11.30;98.70;;;;;;766473;187;26996;-89
2023/10/25 23:30:01;;;;;;;9.80;7.73;;;11.30;98.60;;;;;;766467;183;26524;-90
2023/10/25 23:32:31;;;;;;;9.17;7.73;;;11.30;98.60;;;;;;766687;183;26456;-89
2023/10/25 23:35:07;;;;;;;11.47;8.17;;;11.30;98.60;;;;;;767284;186;26464;-85
2023/10/25 23:40:19;;;;;;;20.73;14.13;;;11.30;98.60;;;;;;770943;183;26550;-90
2023/10/25 23:42:49;;;;;;;18.03;13.33;;;11.30;98.70;;;;;;750098;188;26472;-91
2023/10/25 23:45:22;;;;;;;13.17;10.50;;;11.30;98.70;;;;;;743918;190;27077;-91
2023/10/25 23:47:55;;;;;;;15.97;12.00;;;11.30;98.70;;;;;;775932;182;26535;-91
2023/10/25 23:50:55;;;;;;;27.30;17.23;;;11.30;98.80;;;;;;776170;180;26518;-90
2023/10/25 23:53:44;;;;;;;25.37;16.00;;;11.30;98.80;;;;;;770803;185;27101;-90
2023/10/25 23:56:20;;;;;;;17.67;12.00;;;11.30;98.80;;;;;;767587;185;26476;-90
